Startpagina
METAR-TAF:

METAR-TAF

Vliegvelden :

Tumbes, Peru

breedte: 03-33S, lengte: 080-24W, hoogte: 25 m

Actueel weer

Dit bericht is 1 uur en het 13 minuten geleden gemaakt, om 18:00 UTC
Wind 7 kt uit het noordnoordoosten
Temperatuur 29°C
Vochtigheid 74%
Druk 1013 hPa
Zicht 10 km of meer
Verspreide wolken op 1200 ft
Verspreide wolken op 2000 ft

METAR: SPME 281800Z 03007KT 9999 SCT012 SCT020 29/24 Q1013 RMK BIRD HAZARD RWY 32/14 PP000

Tijdstip: 14:13 (19:13 UTC)

Verwachting

Dit bericht is 2 uur en het 13 minuten geleden gemaakt, om 17:00 UTC
Verwachting geldig van 28 om 18 UTC tot 29 om 18 UTC
Wind 9 kt uit het noordnoordwesten
Zicht 10 km of meer
Gebroken wolken op 1200 ft
Wijzigt naar
van 28 om 22 UTC tot 29 om 00 UTC
Gebroken wolken op 1000 ft
Tijdelijke
van 29 om 12 UTC tot 29 om 14 UTC
Wind 3 kt uit het zuidzuidoosten
Zicht: 4000 m
Gebroken wolken op 1000 ft
nevel

TAF: SPME 281700Z 2818/2918 33009KT 9999 BKN012 TX29/2819Z TN22/2911Z BECMG 2822/2900 BKN010 TEMPO 2912/2914 15003KT 4000 BR BKN010

Waarnemingen en weersverwachtingen van meer dan 4000 vliegvelden (METAR en TAF).

De beschikbare stations zijn de gele en rode punten op de kaart.

Ga met uw muis naar het station om de naam te zien.

Klik dan om waarnemingen en weersverwachtingen te zien.

kaart wijzigen: klik op de groene knoppen met een zwart kruis om in te zoomen, op de groene knop met een streepje om uit te zoomen of op de groene pijlen voor aangrenzende kaarten.


METAR-TAF: